sensor_id;sensor_type;location;lat;lon;timestamp;temperature;humidity
17891;DHT22;9071;48.220;14.480;2023-07-29T00:04:42;18.40;99.90
17891;DHT22;9071;48.220;14.480;2023-07-29T00:09:44;18.30;99.90
17891;DHT22;9071;48.220;14.480;2023-07-29T00:14:48;18.30;99.90
17891;DHT22;9071;48.220;14.480;2023-07-29T00:19:50;18.20;99.90
17891;DHT22;9071;48.220;14.480;2023-07-29T00:24:52;18.10;99.90
17891;DHT22;9071;48.220;14.480;2023-07-29T00:29:57;18.10;99.90
17891;DHT22;9071;48.220;14.480;2023-07-29T00:34:59;18.20;99.90
17891;DHT22;9071;48.220;14.480;2023-07-29T00:40:01;18.20;99.90
17891;DHT22;9071;48.220;14.480;2023-07-29T00:45:07;18.30;99.90
17891;DHT22;9071;48.220;14.480;2023-07-29T00:50:10;18.40;99.90
17891;DHT22;9071;48.220;14.480;2023-07-29T00:55:13;18.40;99.90
17891;DHT22;9071;48.220;14.480;2023-07-29T01:00:16;18.50;99.90
17891;DHT22;9071;48.220;14.480;2023-07-29T01:05:18;18.50;99.90
17891;DHT22;9071;48.220;14.480;2023-07-29T01:10:30;18.50;99.90
17891;DHT22;9071;48.220;14.480;2023-07-29T01:15:40;18.50;99.90
17891;DHT22;9071;48.220;14.480;2023-07-29T01:20:47;18.50;99.90
17891;DHT22;9071;48.220;14.480;2023-07-29T01:25:50;18.60;99.90
17891;DHT22;9071;48.220;14.480;2023-07-29T01:30:58;18.60;99.90
17891;DHT22;9071;48.220;14.480;2023-07-29T01:36:06;18.50;99.90
17891;DHT22;9071;48.220;14.480;2023-07-29T01:41:11;18.50;99.90
17891;DHT22;9071;48.220;14.480;2023-07-29T01:46:15;18.40;99.90
17891;DHT22;9071;48.220;14.480;2023-07-29T01:51:17;18.30;99.90
17891;DHT22;9071;48.220;14.480;2023-07-29T01:56:20;18.30;99.90
17891;DHT22;9071;48.220;14.480;2023-07-29T02:01:23;18.20;99.90
17891;DHT22;9071;48.220;14.480;2023-07-29T02:06:25;18.20;99.90
17891;DHT22;9071;48.220;14.480;2023-07-29T02:11:29;18.10;99.90
17891;DHT22;9071;48.220;14.480;2023-07-29T02:16:31;18.00;99.90
17891;DHT22;9071;48.220;14.480;2023-07-29T02:21:35;18.00;99.90
17891;DHT22;9071;48.220;14.480;2023-07-29T02:26:38;17.90;99.90
17891;DHT22;9071;48.220;14.480;2023-07-29T02:31:40;17.80;99.90
17891;DHT22;9071;48.220;14.480;2023-07-29T02:36:42;17.60;99.90
17891;DHT22;9071;48.220;14.480;2023-07-29T02:41:47;17.50;99.90
17891;DHT22;9071;48.220;14.480;2023-07-29T02:46:49;17.30;99.90
17891;DHT22;9071;48.220;14.480;2023-07-29T02:51:52;17.20;99.90
17891;DHT22;9071;48.220;14.480;2023-07-29T02:56:56;17.10;99.90
17891;DHT22;9071;48.220;14.480;2023-07-29T03:01:58;17.20;99.90
17891;DHT22;9071;48.220;14.480;2023-07-29T03:07:00;17.30;99.90
17891;DHT22;9071;48.220;14.480;2023-07-29T03:12:04;17.30;99.90
17891;DHT22;9071;48.220;14.480;2023-07-29T03:17:06;17.20;99.90
17891;DHT22;9071;48.220;14.480;2023-07-29T03:22:08;17.10;99.90
17891;DHT22;9071;48.220;14.480;2023-07-29T03:27:12;17.00;99.90
17891;DHT22;9071;48.220;14.480;2023-07-29T03:32:15;16.90;99.90
17891;DHT22;9071;48.220;14.480;2023-07-29T03:37:18;16.90;99.90
17891;DHT22;9071;48.220;14.480;2023-07-29T03:42:21;16.80;99.90
17891;DHT22;9071;48.220;14.480;2023-07-29T03:47:23;16.80;99.90
17891;DHT22;9071;48.220;14.480;2023-07-29T03:52:25;16.80;99.90
17891;DHT22;9071;48.220;14.480;2023-07-29T03:57:29;16.80;99.90
17891;DHT22;9071;48.220;14.480;2023-07-29T04:02:31;16.90;99.90
17891;DHT22;9071;48.220;14.480;2023-07-29T04:07:33;17.00;99.90
17891;DHT22;9071;48.220;14.480;2023-07-29T04:12:37;17.10;99.90
17891;DHT22;9071;48.220;14.480;2023-07-29T04:17:39;17.20;99.90
17891;DHT22;9071;48.220;14.480;2023-07-29T04:22:41;17.20;99.90
17891;DHT22;9071;48.220;14.480;2023-07-29T04:27:45;17.50;99.90
17891;DHT22;9071;48.220;14.480;2023-07-29T04:32:47;17.70;99.90
17891;DHT22;9071;48.220;14.480;2023-07-29T04:37:49;17.90;99.90
17891;DHT22;9071;48.220;14.480;2023-07-29T04:42:52;18.20;99.90
17891;DHT22;9071;48.220;14.480;2023-07-29T04:47:54;18.30;99.90
17891;DHT22;9071;48.220;14.480;2023-07-29T04:52:56;18.40;99.90
17891;DHT22;9071;48.220;14.480;2023-07-29T04:58:00;18.50;99.90
17891;DHT22;9071;48.220;14.480;2023-07-29T05:03:02;18.50;99.90
17891;DHT22;9071;48.220;14.480;2023-07-29T05:08:04;18.70;99.90
17891;DHT22;9071;48.220;14.480;2023-07-29T05:13:07;18.80;99.90
17891;DHT22;9071;48.220;14.480;2023-07-29T05:18:10;19.10;99.90
17891;DHT22;9071;48.220;14.480;2023-07-29T05:23:12;19.50;99.90
17891;DHT22;9071;48.220;14.480;2023-07-29T05:28:15;19.80;99.90
17891;DHT22;9071;48.220;14.480;2023-07-29T05:33:17;20.30;99.90
17891;DHT22;9071;48.220;14.480;2023-07-29T05:38:19;23.50;99.90
17891;DHT22;9071;48.220;14.480;2023-07-29T05:43:24;26.30;99.90
17891;DHT22;9071;48.220;14.480;2023-07-29T05:48:26;26.50;99.90
17891;DHT22;9071;48.220;14.480;2023-07-29T05:53:29;27.90;99.90
17891;DHT22;9071;48.220;14.480;2023-07-29T05:58:32;29.10;99.90
17891;DHT22;9071;48.220;14.480;2023-07-29T06:03:34;29.50;99.90
17891;DHT22;9071;48.220;14.480;2023-07-29T06:08:36;30.30;99.90
17891;DHT22;9071;48.220;14.480;2023-07-29T06:13:39;32.00;99.90
17891;DHT22;9071;48.220;14.480;2023-07-29T06:18:41;32.50;99.90
17891;DHT22;9071;48.220;14.480;2023-07-29T06:23:43;32.60;99.90
17891;DHT22;9071;48.220;14.480;2023-07-29T06:28:47;33.60;99.90
17891;DHT22;9071;48.220;14.480;2023-07-29T06:33:49;32.90;99.90
17891;DHT22;9071;48.220;14.480;2023-07-29T06:38:51;33.60;99.90
17891;DHT22;9071;48.220;14.480;2023-07-29T06:43:55;34.30;99.90
17891;DHT22;9071;48.220;14.480;2023-07-29T06:48:57;34.70;99.90
17891;DHT22;9071;48.220;14.480;2023-07-29T06:53:59;35.30;99.90
17891;DHT22;9071;48.220;14.480;2023-07-29T06:59:03;35.00;99.90
17891;DHT22;9071;48.220;14.480;2023-07-29T07:04:05;35.40;99.90
17891;DHT22;9071;48.220;14.480;2023-07-29T07:09:07;35.30;99.90
17891;DHT22;9071;48.220;14.480;2023-07-29T07:14:10;36.00;99.90
17891;DHT22;9071;48.220;14.480;2023-07-29T07:19:12;35.00;99.90
17891;DHT22;9071;48.220;14.480;2023-07-29T07:24:14;34.00;99.90
17891;DHT22;9071;48.220;14.480;2023-07-29T07:29:18;33.00;99.90
17891;DHT22;9071;48.220;14.480;2023-07-29T07:34:20;33.70;99.90
17891;DHT22;9071;48.220;14.480;2023-07-29T07:39:22;34.20;99.90
17891;DHT22;9071;48.220;14.480;2023-07-29T07:44:26;35.10;99.90
17891;DHT22;9071;48.220;14.480;2023-07-29T07:49:28;34.70;99.90
17891;DHT22;9071;48.220;14.480;2023-07-29T07:54:30;34.30;99.90
17891;DHT22;9071;48.220;14.480;2023-07-29T07:59:34;34.10;99.90
17891;DHT22;9071;48.220;14.480;2023-07-29T08:04:36;33.20;99.90
17891;DHT22;9071;48.220;14.480;2023-07-29T08:09:38;33.10;99.90
17891;DHT22;9071;48.220;14.480;2023-07-29T08:14:41;34.20;99.90
17891;DHT22;9071;48.220;14.480;2023-07-29T08:19:43;33.80;99.90
17891;DHT22;9071;48.220;14.480;2023-07-29T08:24:46;33.10;99.90
17891;DHT22;9071;48.220;14.480;2023-07-29T08:29:49;31.60;99.90
17891;DHT22;9071;48.220;14.480;2023-07-29T08:34:51;30.20;99.90
17891;DHT22;9071;48.220;14.480;2023-07-29T08:39:53;29.90;99.90
17891;DHT22;9071;48.220;14.480;2023-07-29T08:45:06;29.40;99.90
17891;DHT22;9071;48.220;14.480;2023-07-29T08:50:09;28.70;99.90
17891;DHT22;9071;48.220;14.480;2023-07-29T08:55:12;28.70;99.90
17891;DHT22;9071;48.220;14.480;2023-07-29T09:00:15;28.70;99.90
17891;DHT22;9071;48.220;14.480;2023-07-29T09:05:18;29.00;99.90
17891;DHT22;9071;48.220;14.480;2023-07-29T09:10:22;28.90;99.90
17891;DHT22;9071;48.220;14.480;2023-07-29T09:15:30;28.80;99.90
17891;DHT22;9071;48.220;14.480;2023-07-29T09:20:33;28.80;99.90
17891;DHT22;9071;48.220;14.480;2023-07-29T09:25:36;28.90;99.90
17891;DHT22;9071;48.220;14.480;2023-07-29T09:30:41;28.60;99.90
17891;DHT22;9071;48.220;14.480;2023-07-29T09:35:44;28.70;99.90
17891;DHT22;9071;48.220;14.480;2023-07-29T09:40:47;29.00;99.90
17891;DHT22;9071;48.220;14.480;2023-07-29T09:45:52;29.10;99.90
17891;DHT22;9071;48.220;14.480;2023-07-29T09:50:54;28.90;99.90
17891;DHT22;9071;48.220;14.480;2023-07-29T09:55:57;29.00;99.90
17891;DHT22;9071;48.220;14.480;2023-07-29T10:01:01;29.30;99.90
17891;DHT22;9071;48.220;14.480;2023-07-29T10:06:05;29.40;99.90
17891;DHT22;9071;48.220;14.480;2023-07-29T10:11:08;29.30;99.90
17891;DHT22;9071;48.220;14.480;2023-07-29T10:16:12;29.30;99.90
17891;DHT22;9071;48.220;14.480;2023-07-29T10:21:15;28.50;99.90
17891;DHT22;9071;48.220;14.480;2023-07-29T10:26:19;27.70;99.90
17891;DHT22;9071;48.220;14.480;2023-07-29T10:31:23;26.10;99.90
17891;DHT22;9071;48.220;14.480;2023-07-29T10:36:26;24.40;99.90
17891;DHT22;9071;48.220;14.480;2023-07-29T10:41:56;23.90;99.90
17891;DHT22;9071;48.220;14.480;2023-07-29T10:46:59;23.70;99.90
17891;DHT22;9071;48.220;14.480;2023-07-29T10:52:01;23.70;99.90
17891;DHT22;9071;48.220;14.480;2023-07-29T10:57:03;24.10;99.90
17891;DHT22;9071;48.220;14.480;2023-07-29T11:02:17;24.40;99.90
17891;DHT22;9071;48.220;14.480;2023-07-29T11:07:24;24.40;99.90
17891;DHT22;9071;48.220;14.480;2023-07-29T11:12:38;24.70;99.90
17891;DHT22;9071;48.220;14.480;2023-07-29T11:17:43;25.20;99.90
17891;DHT22;9071;48.220;14.480;2023-07-29T11:22:46;25.70;99.90
17891;DHT22;9071;48.220;14.480;2023-07-29T11:27:48;25.90;99.90
17891;DHT22;9071;48.220;14.480;2023-07-29T11:32:53;26.00;99.90
17891;DHT22;9071;48.220;14.480;2023-07-29T11:37:56;26.10;99.90
17891;DHT22;9071;48.220;14.480;2023-07-29T11:42:58;26.20;99.90
17891;DHT22;9071;48.220;14.480;2023-07-29T11:48:02;26.30;99.90
17891;DHT22;9071;48.220;14.480;2023-07-29T11:53:05;26.20;99.90
17891;DHT22;9071;48.220;14.480;2023-07-29T11:58:07;26.40;99.90
17891;DHT22;9071;48.220;14.480;2023-07-29T12:03:10;26.60;99.90
17891;DHT22;9071;48.220;14.480;2023-07-29T12:08:13;26.50;99.90
17891;DHT22;9071;48.220;14.480;2023-07-29T12:13:15;27.00;99.90
17891;DHT22;9071;48.220;14.480;2023-07-29T12:18:18;27.00;99.90
17891;DHT22;9071;48.220;14.480;2023-07-29T12:23:24;27.10;99.90
17891;DHT22;9071;48.220;14.480;2023-07-29T12:28:27;27.20;99.90
17891;DHT22;9071;48.220;14.480;2023-07-29T12:33:31;27.40;99.90
17891;DHT22;9071;48.220;14.480;2023-07-29T12:38:33;27.80;99.90
17891;DHT22;9071;48.220;14.480;2023-07-29T12:43:37;28.00;99.90
17891;DHT22;9071;48.220;14.480;2023-07-29T12:48:40;28.10;99.90
17891;DHT22;9071;48.220;14.480;2023-07-29T12:53:42;28.60;99.90
17891;DHT22;9071;48.220;14.480;2023-07-29T12:58:45;28.10;99.90
17891;DHT22;9071;48.220;14.480;2023-07-29T13:03:49;27.90;99.90
17891;DHT22;9071;48.220;14.480;2023-07-29T13:08:51;27.70;99.90
17891;DHT22;9071;48.220;14.480;2023-07-29T13:13:55;27.90;99.90
17891;DHT22;9071;48.220;14.480;2023-07-29T13:18:58;28.00;99.90
17891;DHT22;9071;48.220;14.480;2023-07-29T13:24:00;27.90;99.90
17891;DHT22;9071;48.220;14.480;2023-07-29T13:29:02;27.80;99.90
17891;DHT22;9071;48.220;14.480;2023-07-29T13:34:07;27.60;99.90
17891;DHT22;9071;48.220;14.480;2023-07-29T13:39:09;27.40;99.90
17891;DHT22;9071;48.220;14.480;2023-07-29T13:44:11;27.00;99.90
17891;DHT22;9071;48.220;14.480;2023-07-29T13:49:14;26.70;99.90
17891;DHT22;9071;48.220;14.480;2023-07-29T13:54:16;26.30;99.90
17891;DHT22;9071;48.220;14.480;2023-07-29T13:59:18;25.90;99.90
17891;DHT22;9071;48.220;14.480;2023-07-29T14:04:22;25.50;99.90
17891;DHT22;9071;48.220;14.480;2023-07-29T14:09:24;23.90;99.90
17891;DHT22;9071;48.220;14.480;2023-07-29T14:14:26;21.80;99.90
17891;DHT22;9071;48.220;14.480;2023-07-29T14:19:30;20.90;99.90
17891;DHT22;9071;48.220;14.480;2023-07-29T14:24:32;20.50;99.90
17891;DHT22;9071;48.220;14.480;2023-07-29T14:29:35;20.60;99.90
17891;DHT22;9071;48.220;14.480;2023-07-29T14:34:38;21.10;99.90
17891;DHT22;9071;48.220;14.480;2023-07-29T14:39:42;21.70;99.90
17891;DHT22;9071;48.220;14.480;2023-07-29T14:44:44;22.20;99.90
17891;DHT22;9071;48.220;14.480;2023-07-29T14:49:47;22.70;99.90
17891;DHT22;9071;48.220;14.480;2023-07-29T14:54:50;23.40;99.90
17891;DHT22;9071;48.220;14.480;2023-07-29T14:59:52;23.30;99.90
17891;DHT22;9071;48.220;14.480;2023-07-29T15:04:55;23.50;99.90
17891;DHT22;9071;48.220;14.480;2023-07-29T15:09:57;23.80;99.90
17891;DHT22;9071;48.220;14.480;2023-07-29T15:14:59;23.60;99.90
17891;DHT22;9071;48.220;14.480;2023-07-29T15:20:03;23.60;99.90
17891;DHT22;9071;48.220;14.480;2023-07-29T15:25:09;23.70;99.90
17891;DHT22;9071;48.220;14.480;2023-07-29T15:30:11;23.90;99.90
17891;DHT22;9071;48.220;14.480;2023-07-29T15:35:15;23.90;99.90
17891;DHT22;9071;48.220;14.480;2023-07-29T15:40:17;24.00;99.90
17891;DHT22;9071;48.220;14.480;2023-07-29T15:45:20;23.70;99.90
17891;DHT22;9071;48.220;14.480;2023-07-29T15:50:23;23.50;99.90
17891;DHT22;9071;48.220;14.480;2023-07-29T15:55:25;23.20;99.90
17891;DHT22;9071;48.220;14.480;2023-07-29T16:00:27;22.90;99.90
17891;DHT22;9071;48.220;14.480;2023-07-29T16:05:31;22.80;99.90
17891;DHT22;9071;48.220;14.480;2023-07-29T16:10:33;22.80;99.90
17891;DHT22;9071;48.220;14.480;2023-07-29T16:15:35;22.80;99.90
17891;DHT22;9071;48.220;14.480;2023-07-29T16:20:38;22.90;99.90
17891;DHT22;9071;48.220;14.480;2023-07-29T16:25:40;22.90;99.90
17891;DHT22;9071;48.220;14.480;2023-07-29T16:30:42;22.90;99.90
17891;DHT22;9071;48.220;14.480;2023-07-29T16:35:46;22.90;99.90
17891;DHT22;9071;48.220;14.480;2023-07-29T16:40:48;22.90;99.90
17891;DHT22;9071;48.220;14.480;2023-07-29T16:45:50;23.00;99.90
17891;DHT22;9071;48.220;14.480;2023-07-29T16:50:54;23.10;99.90
17891;DHT22;9071;48.220;14.480;2023-07-29T16:55:56;23.10;99.90
17891;DHT22;9071;48.220;14.480;2023-07-29T17:00:58;23.10;99.90
17891;DHT22;9071;48.220;14.480;2023-07-29T17:06:01;23.10;99.90
17891;DHT22;9071;48.220;14.480;2023-07-29T17:11:03;22.90;99.90
17891;DHT22;9071;48.220;14.480;2023-07-29T17:16:05;22.90;99.90
17891;DHT22;9071;48.220;14.480;2023-07-29T17:21:10;22.80;99.90
17891;DHT22;9071;48.220;14.480;2023-07-29T17:26:12;22.70;99.90
17891;DHT22;9071;48.220;14.480;2023-07-29T17:31:14;22.60;99.90
17891;DHT22;9071;48.220;14.480;2023-07-29T17:36:18;22.50;99.90
17891;DHT22;9071;48.220;14.480;2023-07-29T17:41:20;22.40;99.90
17891;DHT22;9071;48.220;14.480;2023-07-29T17:46:22;22.30;99.90
17891;DHT22;9071;48.220;14.480;2023-07-29T17:51:25;22.20;99.90
17891;DHT22;9071;48.220;14.480;2023-07-29T17:56:27;22.20;99.90
17891;DHT22;9071;48.220;14.480;2023-07-29T18:01:29;22.20;99.90
17891;DHT22;9071;48.220;14.480;2023-07-29T18:06:33;22.10;99.90
17891;DHT22;9071;48.220;14.480;2023-07-29T18:11:35;22.00;99.90
17891;DHT22;9071;48.220;14.480;2023-07-29T18:16:41;21.80;99.90
17891;DHT22;9071;48.220;14.480;2023-07-29T18:21:44;21.70;99.90
17891;DHT22;9071;48.220;14.480;2023-07-29T18:26:46;21.60;99.90
17891;DHT22;9071;48.220;14.480;2023-07-29T18:31:48;21.50;99.90
17891;DHT22;9071;48.220;14.480;2023-07-29T18:36:53;21.40;99.90
17891;DHT22;9071;48.220;14.480;2023-07-29T18:41:55;21.30;99.90
17891;DHT22;9071;48.220;14.480;2023-07-29T18:46:57;21.20;99.90
17891;DHT22;9071;48.220;14.480;2023-07-29T18:52:01;21.20;99.90
17891;DHT22;9071;48.220;14.480;2023-07-29T18:57:03;21.10;99.90
17891;DHT22;9071;48.220;14.480;2023-07-29T19:02:05;21.10;99.90
17891;DHT22;9071;48.220;14.480;2023-07-29T19:07:09;21.10;99.90
17891;DHT22;9071;48.220;14.480;2023-07-29T19:12:11;21.00;99.90
17891;DHT22;9071;48.220;14.480;2023-07-29T19:17:14;21.00;99.90
17891;DHT22;9071;48.220;14.480;2023-07-29T19:22:18;20.90;99.90
17891;DHT22;9071;48.220;14.480;2023-07-29T19:27:20;20.90;99.90
17891;DHT22;9071;48.220;14.480;2023-07-29T19:32:22;20.90;99.90
17891;DHT22;9071;48.220;14.480;2023-07-29T19:37:26;20.80;99.90
17891;DHT22;9071;48.220;14.480;2023-07-29T19:42:28;20.70;99.90
17891;DHT22;9071;48.220;14.480;2023-07-29T19:47:30;20.70;99.90
17891;DHT22;9071;48.220;14.480;2023-07-29T19:52:33;20.70;99.90
17891;DHT22;9071;48.220;14.480;2023-07-29T19:57:35;20.80;99.90
17891;DHT22;9071;48.220;14.480;2023-07-29T20:02:37;20.70;99.90
17891;DHT22;9071;48.220;14.480;2023-07-29T20:07:40;20.80;99.90
17891;DHT22;9071;48.220;14.480;2023-07-29T20:12:42;20.80;99.90
17891;DHT22;9071;48.220;14.480;2023-07-29T20:17:44;20.70;99.90
17891;DHT22;9071;48.220;14.480;2023-07-29T20:22:48;20.80;99.90
17891;DHT22;9071;48.220;14.480;2023-07-29T20:27:50;20.70;99.90
17891;DHT22;9071;48.220;14.480;2023-07-29T20:32:52;20.70;99.90
17891;DHT22;9071;48.220;14.480;2023-07-29T20:37:55;20.70;99.90
17891;DHT22;9071;48.220;14.480;2023-07-29T20:42:57;20.70;99.90
17891;DHT22;9071;48.220;14.480;2023-07-29T20:47:59;20.70;99.90
17891;DHT22;9071;48.220;14.480;2023-07-29T20:53:03;20.70;99.90
17891;DHT22;9071;48.220;14.480;2023-07-29T20:58:05;20.70;99.90
17891;DHT22;9071;48.220;14.480;2023-07-29T21:03:07;20.60;99.90
17891;DHT22;9071;48.220;14.480;2023-07-29T21:08:10;20.50;99.90
17891;DHT22;9071;48.220;14.480;2023-07-29T21:13:12;20.40;99.90
17891;DHT22;9071;48.220;14.480;2023-07-29T21:18:14;20.40;99.90
17891;DHT22;9071;48.220;14.480;2023-07-29T21:23:18;20.40;99.90
17891;DHT22;9071;48.220;14.480;2023-07-29T21:28:20;20.40;99.90
17891;DHT22;9071;48.220;14.480;2023-07-29T21:33:22;20.40;99.90
17891;DHT22;9071;48.220;14.480;2023-07-29T21:38:25;20.30;99.90
17891;DHT22;9071;48.220;14.480;2023-07-29T21:43:27;20.20;99.90
17891;DHT22;9071;48.220;14.480;2023-07-29T21:48:29;20.20;99.90
17891;DHT22;9071;48.220;14.480;2023-07-29T21:53:32;20.10;99.90
17891;DHT22;9071;48.220;14.480;2023-07-29T21:58:35;20.00;99.90
17891;DHT22;9071;48.220;14.480;2023-07-29T22:03:36;20.00;99.90
17891;DHT22;9071;48.220;14.480;2023-07-29T22:08:40;20.00;99.90
17891;DHT22;9071;48.220;14.480;2023-07-29T22:13:42;19.90;99.90
17891;DHT22;9071;48.220;14.480;2023-07-29T22:18:44;19.80;99.90
17891;DHT22;9071;48.220;14.480;2023-07-29T22:23:48;19.70;99.90
17891;DHT22;9071;48.220;14.480;2023-07-29T22:28:50;19.60;99.90
17891;DHT22;9071;48.220;14.480;2023-07-29T22:33:52;19.60;99.90
17891;DHT22;9071;48.220;14.480;2023-07-29T22:38:55;19.60;99.90
17891;DHT22;9071;48.220;14.480;2023-07-29T22:43:57;19.50;99.90
17891;DHT22;9071;48.220;14.480;2023-07-29T22:48:59;19.40;99.90
17891;DHT22;9071;48.220;14.480;2023-07-29T22:54:03;19.40;99.90
17891;DHT22;9071;48.220;14.480;2023-07-29T22:59:05;19.40;99.90
17891;DHT22;9071;48.220;14.480;2023-07-29T23:04:09;19.40;99.90
17891;DHT22;9071;48.220;14.480;2023-07-29T23:09:12;19.30;99.90
17891;DHT22;9071;48.220;14.480;2023-07-29T23:14:14;19.30;99.90
17891;DHT22;9071;48.220;14.480;2023-07-29T23:19:16;19.30;99.90
17891;DHT22;9071;48.220;14.480;2023-07-29T23:24:19;19.30;99.90
17891;DHT22;9071;48.220;14.480;2023-07-29T23:29:21;19.30;99.90
17891;DHT22;9071;48.220;14.480;2023-07-29T23:34:23;19.30;99.90
17891;DHT22;9071;48.220;14.480;2023-07-29T23:39:27;19.30;99.90
17891;DHT22;9071;48.220;14.480;2023-07-29T23:44:29;19.40;99.90
17891;DHT22;9071;48.220;14.480;2023-07-29T23:49:31;19.40;99.90
17891;DHT22;9071;48.220;14.480;2023-07-29T23:54:34;19.40;99.90
17891;DHT22;9071;48.220;14.480;2023-07-29T23:59:36;19.40;99.90
